Archival Weather

Chicago O'Hare International

Chicago, Illinois (KORD)

Report from: Tuesday, May 2, 2023 3:51 PM CDT
Current time: Sunday, February 25, 2024 4:27 PM CST

Current weather – Weather history – Daily summaries
Weather forecast

Temperature11.7°C (53.1°F)
Dew point-0.6°C (30.9°F)
Winds 13 kts (6.7 m/s, 15 mph) North-Northwest (330°)
Wind gusts 22 kts (11.3 m/s, 25.3 mph)
Visibility10 mi. (16.1 km)
Clouds Ceiling: Overcast 6,000 ft. (1,829 m)
Altimeter29.61 in.Hg (1003 mB)
Relative humidity43 %
Density altitude57 ft. (17 m)
Sea-level pressure100.3 kPa (1003 mB, 29.61 in.Hg)
Remarks Automated weather observing station with precipitation discriminator
Pressure rising more quickly
Flight conditions Visual Meteorological Conditions
Raw dataKORD 022051Z 33013G22KT 10SM OVC060 12/M01 A2961 RMK AO2 SLP027 T01171006 53014
An error has occurred. This application may no longer respond until reloaded. Reload 🗙